Time,TemperatureF,DewpointF,PressureIn,WindDirection,WindDirectionDegrees,WindSpeedMPH,WindSpeedGustMPH,Humidity,HourlyPrecipIn,Conditions,Clouds,dailyrainin,SoftwareType,DateUTC
2013-01-13 00:04:00,27.2,26.2,30.43,ENE,77,1.0,2.0,96,0.00,,,0.00,Wunderground v.1.15,2013-01-13 08:04:00,
2013-01-13 00:09:00,27.1,25.9,30.43,ESE,111,1.0,1.0,95,0.00,,,0.00,Wunderground v.1.15,2013-01-13 08:09:00,
2013-01-13 00:14:00,27.2,26.2,30.42,SSE,153,1.0,2.0,96,0.00,,,0.00,Wunderground v.1.15,2013-01-13 08:14:00,
2013-01-13 00:19:00,27.2,26.0,30.42,SSE,153,2.0,2.0,95,0.00,,,0.00,Wunderground v.1.15,2013-01-13 08:19:00,
2013-01-13 00:24:00,27.0,26.0,30.42,SSE,153,1.0,2.0,96,0.00,,,0.00,Wunderground v.1.15,2013-01-13 08:24:00,
2013-01-13 00:29:00,26.1,24.6,30.42,East,97,1.0,1.0,94,0.00,,,0.00,Wunderground v.1.15,2013-01-13 08:29:00,
2013-01-13 00:34:00,25.3,23.8,30.42,East,97,2.0,2.0,94,0.00,,,0.00,Wunderground v.1.15,2013-01-13 08:34:00,
2013-01-13 00:39:00,25.1,23.9,30.43,East,97,1.0,1.0,95,0.00,,,0.00,Wunderground v.1.15,2013-01-13 08:39:00,
2013-01-13 00:44:00,25.2,24.0,30.43,East,97,1.0,1.0,95,0.00,,,0.00,Wunderground v.1.15,2013-01-13 08:44:00,
2013-01-13 00:49:00,25.6,24.6,30.43,East,97,0.0,0.0,96,0.00,,,0.00,Wunderground v.1.15,2013-01-13 08:49:00,
2013-01-13 00:54:00,26.0,25.0,30.43,East,97,0.0,0.0,96,0.00,,,0.00,Wunderground v.1.15,2013-01-13 08:54:00,
2013-01-13 00:59:00,26.2,25.2,30.43,East,97,0.0,0.0,96,0.00,,,0.00,Wunderground v.1.15,2013-01-13 08:59:00,
2013-01-13 01:00:00,26.3,25.3,30.43,East,97,0.0,0.0,96,0.00,,,0.00,Wunderground v.1.15,2013-01-13 09:00:00,
2013-01-13 01:05:00,26.5,25.5,30.43,East,98,0.0,3.0,96,0.00,,,0.00,Wunderground v.1.15,2013-01-13 09:05:00,
2013-01-13 01:10:00,26.9,25.9,30.43,SSE,158,1.0,3.0,96,0.00,,,0.00,Wunderground v.1.15,2013-01-13 09:10:00,
2013-01-13 01:15:00,27.5,26.5,30.43,SSE,155,3.0,3.0,96,0.00,,,0.00,Wunderground v.1.15,2013-01-13 09:15:00,
2013-01-13 01:20:00,27.7,26.7,30.43,SE,134,3.0,3.0,96,0.00,,,0.00,Wunderground v.1.15,2013-01-13 09:20:00,
2013-01-13 01:25:00,27.8,26.8,30.43,SE,139,4.0,4.0,96,0.00,,,0.00,Wunderground v.1.15,2013-01-13 09:25:00,
2013-01-13 01:30:00,27.6,26.4,30.43,SE,133,3.0,3.0,95,0.00,,,0.00,Wunderground v.1.15,2013-01-13 09:30:00,
2013-01-13 01:35:00,27.3,26.1,30.43,SE,133,1.0,3.0,95,0.00,,,0.00,Wunderground v.1.15,2013-01-13 09:35:00,
2013-01-13 01:40:00,26.9,25.7,30.43,SE,133,1.0,1.0,95,0.00,,,0.00,Wunderground v.1.15,2013-01-13 09:40:00,
2013-01-13 01:45:00,26.7,25.5,30.44,SE,133,1.0,1.0,95,0.00,,,0.00,Wunderground v.1.15,2013-01-13 09:45:00,
2013-01-13 01:50:00,26.2,25.0,30.44,SE,133,1.0,1.0,95,0.00,,,0.00,Wunderground v.1.15,2013-01-13 09:50:00,
2013-01-13 01:55:00,25.8,24.6,30.44,SE,133,1.0,1.0,95,0.00,,,0.00,Wunderground v.1.15,2013-01-13 09:55:00,
2013-01-13 02:00:00,25.7,24.5,30.44,SE,133,1.0,1.0,95,0.00,,,0.00,Wunderground v.1.15,2013-01-13 10:00:00,
2013-01-13 02:05:00,25.7,24.5,30.44,SE,133,0.0,1.0,95,0.00,,,0.00,Wunderground v.1.15,2013-01-13 10:05:00,
2013-01-13 02:10:00,25.8,24.6,30.45,SE,133,0.0,0.0,95,0.00,,,0.00,Wunderground v.1.15,2013-01-13 10:10:00,
2013-01-13 02:20:00,25.6,24.4,30.45,SE,133,0.0,0.0,95,0.00,,,0.00,Wunderground v.1.15,2013-01-13 10:20:00,
2013-01-13 02:25:00,25.6,24.4,30.45,SE,133,1.0,1.0,95,0.00,,,0.00,Wunderground v.1.15,2013-01-13 10:25:00,
2013-01-13 02:30:00,25.4,24.2,30.45,SE,133,0.0,1.0,95,0.00,,,0.00,Wunderground v.1.15,2013-01-13 10:30:00,
2013-01-13 02:35:00,25.7,24.5,30.45,SSE,147,1.0,3.0,95,0.00,,,0.00,Wunderground v.1.15,2013-01-13 10:35:00,
2013-01-13 02:40:00,26.5,25.5,30.45,SSE,152,2.0,3.0,96,0.00,,,0.00,Wunderground v.1.15,2013-01-13 10:40:00,
2013-01-13 02:50:00,26.0,24.8,30.45,SSE,152,1.0,1.0,95,0.00,,,0.00,Wunderground v.1.15,2013-01-13 10:50:00,
2013-01-13 02:55:00,26.0,24.8,30.45,ESE,120,1.0,2.0,95,0.00,,,0.00,Wunderground v.1.15,2013-01-13 10:55:00,
2013-01-13 03:00:00,26.1,24.9,30.45,ESE,120,1.0,1.0,95,0.00,,,0.00,Wunderground v.1.15,2013-01-13 11:00:00,
2013-01-13 03:05:00,25.9,24.7,30.45,ESE,120,1.0,1.0,95,0.00,,,0.00,Wunderground v.1.15,2013-01-13 11:05:00,
2013-01-13 03:10:00,25.8,24.6,30.44,ESE,120,0.0,2.0,95,0.00,,,0.00,Wunderground v.1.15,2013-01-13 11:10:00,
2013-01-13 03:20:00,25.6,24.4,30.44,SSE,147,1.0,2.0,95,0.00,,,0.00,Wunderground v.1.15,2013-01-13 11:20:00,
2013-01-13 03:25:00,25.6,24.4,30.44,SE,132,1.0,2.0,95,0.00,,,0.00,Wunderground v.1.15,2013-01-13 11:25:00,
2013-01-13 03:30:00,25.7,24.5,30.44,SE,132,1.0,2.0,95,0.00,,,0.00,Wunderground v.1.15,2013-01-13 11:30:00,
2013-01-13 03:35:00,25.8,24.6,30.44,SE,132,1.0,2.0,95,0.00,,,0.00,Wunderground v.1.15,2013-01-13 11:35:00,
2013-01-13 03:40:00,25.9,24.7,30.44,SE,132,1.0,1.0,95,0.00,,,0.00,Wunderground v.1.15,2013-01-13 11:40:00,
2013-01-13 03:50:00,26.0,24.8,30.44,SE,131,1.0,3.0,95,0.00,,,0.00,Wunderground v.1.15,2013-01-13 11:50:00,
2013-01-13 03:55:00,26.2,25.0,30.44,SE,144,2.0,3.0,95,0.00,,,0.00,Wunderground v.1.15,2013-01-13 11:55:00,
2013-01-13 04:05:00,26.8,25.6,30.43,SE,140,3.0,4.0,95,0.00,,,0.00,Wunderground v.1.15,2013-01-13 12:05:00,
2013-01-13 04:10:00,26.0,24.5,30.43,SE,126,2.0,3.0,94,0.00,,,0.00,Wunderground v.1.15,2013-01-13 12:10:00,
2013-01-13 04:15:00,25.1,23.6,30.43,SE,126,2.0,3.0,94,0.00,,,0.00,Wunderground v.1.15,2013-01-13 12:15:00,
2013-01-13 04:20:00,24.9,23.4,30.44,SE,126,1.0,1.0,94,0.00,,,0.00,Wunderground v.1.15,2013-01-13 12:20:00,
2013-01-13 04:25:00,24.8,23.6,30.44,SE,126,1.0,1.0,95,0.00,,,0.00,Wunderground v.1.15,2013-01-13 12:25:00,
2013-01-13 04:30:00,24.8,23.6,30.44,SE,126,0.0,0.0,95,0.00,,,0.00,Wunderground v.1.15,2013-01-13 12:30:00,
2013-01-13 04:35:00,24.9,23.7,30.43,SE,126,0.0,0.0,95,0.00,,,0.00,Wunderground v.1.15,2013-01-13 12:35:00,
2013-01-13 04:40:00,25.8,24.8,30.44,SSE,158,2.0,4.0,96,0.00,,,0.00,Wunderground v.1.15,2013-01-13 12:40:00,
2013-01-13 04:45:00,26.4,25.4,30.44,SSE,164,3.0,4.0,96,0.00,,,0.00,Wunderground v.1.15,2013-01-13 12:45:00,
2013-01-13 04:50:00,26.5,25.3,30.44,SSE,164,3.0,3.0,95,0.00,,,0.00,Wunderground v.1.15,2013-01-13 12:50:00,
2013-01-13 04:55:00,26.3,25.1,30.44,SSE,158,3.0,3.0,95,0.00,,,0.00,Wunderground v.1.15,2013-01-13 12:55:00,
2013-01-13 05:05:00,26.4,25.2,30.44,SSE,158,2.0,3.0,95,0.00,,,0.00,Wunderground v.1.15,2013-01-13 13:05:00,
2013-01-13 05:10:00,26.1,24.6,30.43,SSE,158,1.0,1.0,94,0.00,,,0.00,Wunderground v.1.15,2013-01-13 13:10:00,
2013-01-13 05:20:00,25.5,24.0,30.43,ESE,120,1.0,1.0,94,0.00,,,0.00,Wunderground v.1.15,2013-01-13 13:20:00,
2013-01-13 05:25:00,25.2,23.7,30.43,ESE,121,1.0,1.0,94,0.00,,,0.00,Wunderground v.1.15,2013-01-13 13:25:00,
2013-01-13 05:30:00,25.3,24.1,30.43,SE,130,1.0,4.0,95,0.00,,,0.00,Wunderground v.1.15,2013-01-13 13:30:00,
2013-01-13 05:35:00,25.4,24.2,30.43,SE,129,2.0,4.0,95,0.00,,,0.00,Wunderground v.1.15,2013-01-13 13:35:00,
2013-01-13 05:40:00,25.4,24.2,30.43,SE,126,2.0,2.0,95,0.00,,,0.00,Wunderground v.1.15,2013-01-13 13:40:00,
2013-01-13 05:45:00,25.6,24.4,30.44,SE,140,2.0,3.0,95,0.00,,,0.00,Wunderground v.1.15,2013-01-13 13:45:00,
2013-01-13 05:50:00,25.8,24.6,30.43,SE,142,3.0,4.0,95,0.00,,,0.00,Wunderground v.1.15,2013-01-13 13:50:00,
2013-01-13 05:55:00,26.0,24.8,30.43,SE,130,4.0,4.0,95,0.00,,,0.00,Wunderground v.1.15,2013-01-13 13:55:00,
2013-01-13 06:00:00,26.4,25.4,30.44,SSE,151,4.0,4.0,96,0.00,,,0.00,Wunderground v.1.15,2013-01-13 14:00:00,
2013-01-13 06:05:00,26.2,25.0,30.44,SE,128,3.0,4.0,95,0.00,,,0.00,Wunderground v.1.15,2013-01-13 14:05:00,
2013-01-13 06:10:00,25.8,24.6,30.44,SE,125,2.0,2.0,95,0.00,,,0.00,Wunderground v.1.15,2013-01-13 14:10:00,
2013-01-13 06:20:00,24.7,23.2,30.45,ESE,115,1.0,1.0,94,0.00,,,0.00,Wunderground v.1.15,2013-01-13 14:20:00,
2013-01-13 06:30:00,24.5,23.3,30.45,ESE,115,0.0,0.0,95,0.00,,,0.00,Wunderground v.1.15,2013-01-13 14:30:00,
2013-01-13 06:35:00,24.5,23.3,30.46,ESE,115,0.0,0.0,95,0.00,,,0.00,Wunderground v.1.15,2013-01-13 14:35:00,
2013-01-13 06:40:00,24.3,23.1,30.46,ESE,115,0.0,1.0,95,0.00,,,0.00,Wunderground v.1.15,2013-01-13 14:40:00,
2013-01-13 06:50:00,24.8,23.8,30.46,SSE,148,2.0,6.0,96,0.00,,,0.00,Wunderground v.1.15,2013-01-13 14:50:00,
2013-01-13 06:55:00,25.6,24.6,30.46,SE,140,4.0,6.0,96,0.00,,,0.00,Wunderground v.1.15,2013-01-13 14:55:00,
2013-01-13 07:05:00,26.1,24.9,30.46,SE,126,5.0,5.0,95,0.00,,,0.00,Wunderground v.1.15,2013-01-13 15:05:00,
2013-01-13 07:10:00,25.7,24.5,30.46,SE,124,4.0,4.0,95,0.00,,,0.00,Wunderground v.1.15,2013-01-13 15:10:00,
2013-01-13 07:15:00,25.4,24.2,30.47,SE,125,2.0,4.0,95,0.00,,,0.00,Wunderground v.1.15,2013-01-13 15:15:00,
2013-01-13 07:20:00,25.3,24.1,30.46,ESE,120,2.0,2.0,95,0.00,,,0.00,Wunderground v.1.15,2013-01-13 15:20:00,
2013-01-13 07:25:00,25.0,23.8,30.46,ESE,119,2.0,2.0,95,0.00,,,0.00,Wunderground v.1.15,2013-01-13 15:25:00,
2013-01-13 07:30:00,24.6,23.1,30.47,ESE,118,1.0,1.0,94,0.00,,,0.00,Wunderground v.1.15,2013-01-13 15:30:00,
2013-01-13 07:35:00,24.3,23.1,30.47,ESE,118,1.0,1.0,95,0.00,,,0.00,Wunderground v.1.15,2013-01-13 15:35:00,
2013-01-13 07:40:00,24.3,23.1,30.47,ESE,123,1.0,1.0,95,0.00,,,0.00,Wunderground v.1.15,2013-01-13 15:40:00,
2013-01-13 07:45:00,24.3,23.1,30.47,ESE,123,1.0,1.0,95,0.00,,,0.00,Wunderground v.1.15,2013-01-13 15:45:00,
2013-01-13 07:50:00,24.4,23.2,30.47,ESE,121,1.0,5.0,95,0.00,,,0.00,Wunderground v.1.15,2013-01-13 15:50:00,
2013-01-13 07:55:00,24.6,23.4,30.47,SE,130,4.0,5.0,95,0.00,,,0.00,Wunderground v.1.15,2013-01-13 15:55:00,
2013-01-13 08:00:00,24.7,23.5,30.47,SE,130,5.0,5.0,95,0.00,,,0.00,Wunderground v.1.15,2013-01-13 16:00:00,
2013-01-13 08:05:00,24.7,23.5,30.47,ESE,123,3.0,5.0,95,0.00,,,0.00,Wunderground v.1.15,2013-01-13 16:05:00,
2013-01-13 08:10:00,24.5,23.3,30.48,ESE,123,2.0,2.0,95,0.00,,,0.00,Wunderground v.1.15,2013-01-13 16:10:00,
2013-01-13 08:15:00,24.4,23.2,30.48,SE,128,2.0,5.0,95,0.00,,,0.00,Wunderground v.1.15,2013-01-13 16:15:00,
2013-01-13 08:20:00,24.5,23.3,30.48,SE,125,3.0,3.0,95,0.00,,,0.00,Wunderground v.1.15,2013-01-13 16:20:00,
2013-01-13 08:30:00,24.4,23.2,30.49,SE,138,3.0,3.0,95,0.00,,,0.00,Wunderground v.1.15,2013-01-13 16:30:00,
2013-01-13 08:35:00,23.9,22.4,30.49,ESE,119,2.0,3.0,94,0.00,,,0.00,Wunderground v.1.15,2013-01-13 16:35:00,
2013-01-13 08:40:00,23.6,22.4,30.49,ESE,119,1.0,1.0,95,0.00,,,0.00,Wunderground v.1.15,2013-01-13 16:40:00,
2013-01-13 08:45:00,23.5,22.3,30.48,SE,126,1.0,1.0,95,0.00,,,0.00,Wunderground v.1.15,2013-01-13 16:45:00,
2013-01-13 08:50:00,23.7,22.5,30.49,SE,131,2.0,3.0,95,0.00,,,0.00,Wunderground v.1.15,2013-01-13 16:50:00,
2013-01-13 08:55:00,23.9,22.9,30.48,SE,132,3.0,3.0,96,0.00,,,0.00,Wunderground v.1.15,2013-01-13 16:55:00,
2013-01-13 09:00:00,24.2,23.2,30.48,SE,128,2.0,3.0,96,0.00,,,0.00,Wunderground v.1.15,2013-01-13 17:00:00,
2013-01-13 09:05:00,24.9,23.9,30.48,SE,126,3.0,6.0,96,0.00,,,0.00,Wunderground v.1.15,2013-01-13 17:05:00,
2013-01-13 09:10:00,25.4,24.4,30.48,SE,145,5.0,8.0,96,0.00,,,0.00,Wunderground v.1.15,2013-01-13 17:10:00,
2013-01-13 09:15:00,25.6,24.6,30.48,SE,144,6.0,8.0,96,0.00,,,0.00,Wunderground v.1.15,2013-01-13 17:15:00,
2013-01-13 09:20:00,25.9,24.9,30.48,SE,128,6.0,6.0,96,0.00,,,0.00,Wunderground v.1.15,2013-01-13 17:20:00,
2013-01-13 09:25:00,25.9,24.9,30.47,SE,132,6.0,6.0,96,0.00,,,0.00,Wunderground v.1.15,2013-01-13 17:25:00,
2013-01-13 09:30:00,26.1,25.1,30.48,SE,132,6.0,6.0,96,0.00,,,0.00,Wunderground v.1.15,2013-01-13 17:30:00,
2013-01-13 09:35:00,26.1,24.9,30.47,ESE,123,7.0,9.0,95,0.00,,,0.00,Wunderground v.1.15,2013-01-13 17:35:00,
2013-01-13 09:40:00,26.5,25.5,30.47,ESE,121,7.0,7.0,96,0.00,,,0.00,Wunderground v.1.15,2013-01-13 17:40:00,
2013-01-13 09:45:00,26.6,25.4,30.47,ESE,116,6.0,7.0,95,0.00,,,0.00,Wunderground v.1.15,2013-01-13 17:45:00,
2013-01-13 09:50:00,26.7,25.5,30.47,ESE,122,6.0,6.0,95,0.00,,,0.00,Wunderground v.1.15,2013-01-13 17:50:00,
2013-01-13 09:55:00,27.0,25.8,30.47,SE,132,5.0,9.0,95,0.00,,,0.00,Wunderground v.1.15,2013-01-13 17:55:00,
2013-01-13 10:00:00,27.1,25.6,30.47,SE,125,5.0,8.0,94,0.00,,,0.00,Wunderground v.1.15,2013-01-13 18:00:00,
2013-01-13 10:05:00,26.9,25.4,30.47,SE,135,7.0,9.0,94,0.00,,,0.00,Wunderground v.1.15,2013-01-13 18:05:00,
2013-01-13 10:10:00,27.0,25.5,30.47,SE,139,8.0,8.0,94,0.00,,,0.00,Wunderground v.1.15,2013-01-13 18:10:00,
2013-01-13 10:15:00,27.3,25.8,30.48,SE,136,8.0,9.0,94,0.00,,,0.00,Wunderground v.1.15,2013-01-13 18:15:00,
2013-01-13 10:20:00,27.6,26.1,30.48,SE,126,7.0,7.0,94,0.00,,,0.00,Wunderground v.1.15,2013-01-13 18:20:00,
2013-01-13 10:25:00,27.8,26.3,30.48,SE,137,7.0,8.0,94,0.00,,,0.00,Wunderground v.1.15,2013-01-13 18:25:00,
2013-01-13 10:30:00,27.9,26.4,30.48,ESE,119,7.0,7.0,94,0.00,,,0.00,Wunderground v.1.15,2013-01-13 18:30:00,
2013-01-13 10:35:00,27.9,26.4,30.48,SE,128,8.0,8.0,94,0.00,,,0.00,Wunderground v.1.15,2013-01-13 18:35:00,
2013-01-13 10:40:00,28.1,26.6,30.49,SE,130,7.0,7.0,94,0.00,,,0.00,Wunderground v.1.15,2013-01-13 18:40:00,
2013-01-13 10:50:00,28.7,27.2,30.49,SE,135,7.0,7.0,94,0.00,,,0.00,Wunderground v.1.15,2013-01-13 18:50:00,
2013-01-13 10:55:00,28.7,27.2,30.49,SE,137,8.0,8.0,94,0.00,,,0.00,Wunderground v.1.15,2013-01-13 18:55:00,
2013-01-13 11:05:00,28.8,27.0,30.48,SE,128,9.0,10.0,93,0.00,,,0.00,Wunderground v.1.15,2013-01-13 19:05:00,
2013-01-13 11:10:00,28.7,26.9,30.48,SE,129,9.0,9.0,93,0.00,,,0.00,Wunderground v.1.15,2013-01-13 19:10:00,
2013-01-13 11:15:00,28.7,26.9,30.48,SE,124,8.0,9.0,93,0.00,,,0.00,Wunderground v.1.15,2013-01-13 19:15:00,
2013-01-13 11:20:00,29.0,27.2,30.48,SE,137,8.0,8.0,93,0.00,,,0.00,Wunderground v.1.15,2013-01-13 19:20:00,
2013-01-13 11:25:00,29.0,27.2,30.48,SE,128,6.0,8.0,93,0.00,,,0.00,Wunderground v.1.15,2013-01-13 19:25:00,
2013-01-13 11:30:00,29.2,27.4,30.48,ESE,122,5.0,5.0,93,0.00,,,0.00,Wunderground v.1.15,2013-01-13 19:30:00,
2013-01-13 11:35:00,29.3,27.5,30.48,ESE,122,5.0,5.0,93,0.00,,,0.00,Wunderground v.1.15,2013-01-13 19:35:00,
2013-01-13 11:40:00,29.6,27.6,30.47,ESE,121,4.0,4.0,92,0.00,,,0.00,Wunderground v.1.15,2013-01-13 19:40:00,
2013-01-13 11:45:00,29.8,27.8,30.47,SE,130,4.0,4.0,92,0.00,,,0.00,Wunderground v.1.15,2013-01-13 19:45:00,
2013-01-13 11:50:00,29.9,27.3,30.47,SE,140,6.0,6.0,90,0.00,,,0.00,Wunderground v.1.15,2013-01-13 19:50:00,
2013-01-13 11:55:00,30.5,27.9,30.46,SE,128,7.0,10.0,90,0.00,,,0.00,Wunderground v.1.15,2013-01-13 19:55:00,
2013-01-13 12:00:00,30.4,27.5,30.46,SE,136,9.0,9.0,89,0.00,,,0.00,Wunderground v.1.15,2013-01-13 20:00:00,
2013-01-13 12:05:00,30.4,27.5,30.46,SE,130,9.0,9.0,89,0.00,,,0.00,Wunderground v.1.15,2013-01-13 20:05:00,
2013-01-13 12:10:00,30.6,27.7,30.45,ESE,119,8.0,10.0,89,0.00,,,0.00,Wunderground v.1.15,2013-01-13 20:10:00,
2013-01-13 12:15:00,30.9,27.8,30.45,SE,136,6.0,10.0,88,0.00,,,0.00,Wunderground v.1.15,2013-01-13 20:15:00,
2013-01-13 12:20:00,31.1,27.7,30.45,SE,138,6.0,8.0,87,0.00,,,0.00,Wunderground v.1.15,2013-01-13 20:20:00,
2013-01-13 12:25:00,31.2,28.1,30.45,SE,136,7.0,8.0,88,0.00,,,0.00,Wunderground v.1.15,2013-01-13 20:25:00,
2013-01-13 12:30:00,31.5,28.4,30.45,ESE,123,7.0,10.0,88,0.00,,,0.00,Wunderground v.1.15,2013-01-13 20:30:00,
2013-01-13 12:35:00,31.5,28.1,30.44,ESE,123,7.0,10.0,87,0.00,,,0.00,Wunderground v.1.15,2013-01-13 20:35:00,
2013-01-13 12:40:00,31.6,28.2,30.45,SE,132,8.0,8.0,87,0.00,,,0.00,Wunderground v.1.15,2013-01-13 20:40:00,
2013-01-13 12:45:00,31.8,28.1,30.45,SE,132,7.0,8.0,86,0.00,,,0.00,Wunderground v.1.15,2013-01-13 20:45:00,
2013-01-13 12:50:00,32.0,28.6,30.46,SE,140,7.0,7.0,87,0.00,,,0.00,Wunderground v.1.15,2013-01-13 20:50:00,
2013-01-13 12:55:00,32.1,28.4,30.46,ESE,117,8.0,8.0,86,0.00,,,0.00,Wunderground v.1.15,2013-01-13 20:55:00,
2013-01-13 13:00:00,32.1,28.1,30.46,ESE,123,8.0,8.0,85,0.00,,,0.00,Wunderground v.1.15,2013-01-13 21:00:00,
2013-01-13 13:05:00,32.4,28.7,30.46,SSE,155,7.0,8.0,86,0.00,,,0.00,Wunderground v.1.15,2013-01-13 21:05:00,
2013-01-13 13:10:00,32.4,28.7,30.46,SSE,155,7.0,8.0,86,0.00,,,0.00,Wunderground v.1.15,2013-01-13 21:10:00,
2013-01-13 13:15:00,32.4,28.7,30.45,SE,129,7.0,8.0,86,0.00,,,0.00,Wunderground v.1.15,2013-01-13 21:15:00,
2013-01-13 13:20:00,32.5,28.5,30.45,SE,130,7.0,7.0,85,0.00,,,0.00,Wunderground v.1.15,2013-01-13 21:20:00,
2013-01-13 13:25:00,32.5,28.5,30.45,SE,134,7.0,7.0,85,0.00,,,0.00,Wunderground v.1.15,2013-01-13 21:25:00,
2013-01-13 13:30:00,32.7,28.7,30.45,SE,128,7.0,8.0,85,0.00,,,0.00,Wunderground v.1.15,2013-01-13 21:30:00,
2013-01-13 13:35:00,32.8,29.1,30.45,SE,126,7.0,8.0,86,0.00,,,0.00,Wunderground v.1.15,2013-01-13 21:35:00,
2013-01-13 13:40:00,32.9,28.9,30.45,SE,138,7.0,7.0,85,0.00,,,0.00,Wunderground v.1.15,2013-01-13 21:40:00,
2013-01-13 13:45:00,33.2,29.2,30.44,SE,134,6.0,8.0,85,0.00,,,0.00,Wunderground v.1.15,2013-01-13 21:45:00,
2013-01-13 13:50:00,33.2,28.9,30.44,SE,142,6.0,6.0,84,0.00,,,0.00,Wunderground v.1.15,2013-01-13 21:50:00,
2013-01-13 13:55:00,33.4,29.4,30.44,SE,137,6.0,6.0,85,0.00,,,0.00,Wunderground v.1.15,2013-01-13 21:55:00,
2013-01-13 14:00:00,33.2,28.9,30.45,SE,130,6.0,6.0,84,0.00,,,0.00,Wunderground v.1.15,2013-01-13 22:00:00,
2013-01-13 14:05:00,33.2,28.9,30.45,SE,128,5.0,6.0,84,0.00,,,0.00,Wunderground v.1.15,2013-01-13 22:05:00,
2013-01-13 14:10:00,33.4,29.4,30.45,SE,131,4.0,6.0,85,0.00,,,0.00,Wunderground v.1.15,2013-01-13 22:10:00,
2013-01-13 14:15:00,33.6,29.6,30.45,SE,136,4.0,6.0,85,0.00,,,0.00,Wunderground v.1.15,2013-01-13 22:15:00,
2013-01-13 14:20:00,33.8,29.5,30.45,ESE,103,4.0,4.0,84,0.00,,,0.00,Wunderground v.1.15,2013-01-13 22:20:00,
2013-01-13 14:25:00,33.9,29.3,30.45,East,97,3.0,4.0,83,0.00,,,0.00,Wunderground v.1.15,2013-01-13 22:25:00,
2013-01-13 14:30:00,34.1,29.5,30.45,ESE,113,3.0,3.0,83,0.00,,,0.00,Wunderground v.1.15,2013-01-13 22:30:00,
2013-01-13 14:35:00,34.2,29.3,30.46,SE,134,3.0,6.0,82,0.00,,,0.00,Wunderground v.1.15,2013-01-13 22:35:00,
2013-01-13 14:40:00,34.1,29.2,30.45,SE,134,4.0,6.0,82,0.00,,,0.00,Wunderground v.1.15,2013-01-13 22:40:00,
2013-01-13 14:45:00,34.0,29.4,30.45,SE,126,5.0,6.0,83,0.00,,,0.00,Wunderground v.1.15,2013-01-13 22:45:00,
2013-01-13 14:50:00,34.0,29.4,30.46,SE,144,6.0,6.0,83,0.00,,,0.00,Wunderground v.1.15,2013-01-13 22:50:00,
2013-01-13 14:55:00,34.1,29.5,30.46,SE,140,6.0,7.0,83,0.00,,,0.00,Wunderground v.1.15,2013-01-13 22:55:00,
2013-01-13 15:00:00,34.1,29.2,30.45,SSE,160,6.0,6.0,82,0.00,,,0.00,Wunderground v.1.15,2013-01-13 23:00:00,
2013-01-13 15:05:00,34.2,29.6,30.46,SE,133,6.0,6.0,83,0.00,,,0.00,Wunderground v.1.15,2013-01-13 23:05:00,
2013-01-13 15:10:00,34.3,29.4,30.45,SE,140,6.0,7.0,82,0.00,,,0.00,Wunderground v.1.15,2013-01-13 23:10:00,
2013-01-13 15:15:00,34.3,29.4,30.45,SE,133,6.0,7.0,82,0.00,,,0.00,Wunderground v.1.15,2013-01-13 23:15:00,
2013-01-13 15:20:00,34.2,29.3,30.45,SE,132,7.0,7.0,82,0.00,,,0.00,Wunderground v.1.15,2013-01-13 23:20:00,
2013-01-13 15:25:00,34.2,29.3,30.44,SE,125,6.0,7.0,82,0.00,,,0.00,Wunderground v.1.15,2013-01-13 23:25:00,
2013-01-13 15:30:00,34.2,29.3,30.44,SE,130,6.0,6.0,82,0.00,,,0.00,Wunderground v.1.15,2013-01-13 23:30:00,
2013-01-13 15:35:00,34.1,29.2,30.44,ESE,121,6.0,6.0,82,0.00,,,0.00,Wunderground v.1.15,2013-01-13 23:35:00,
2013-01-13 15:40:00,34.2,29.3,30.44,SE,130,4.0,5.0,82,0.00,,,0.00,Wunderground v.1.15,2013-01-13 23:40:00,
2013-01-13 15:50:00,33.9,29.0,30.44,SE,129,3.0,7.0,82,0.00,,,0.00,Wunderground v.1.15,2013-01-13 23:50:00,
2013-01-13 15:55:00,34.0,29.7,30.44,SE,128,6.0,8.0,84,0.00,,,0.00,Wunderground v.1.15,2013-01-13 23:55:00,
2013-01-13 16:00:00,34.0,29.4,30.44,SE,132,7.0,7.0,83,0.00,,,0.00,Wunderground v.1.15,2013-01-14 00:00:00,
2013-01-13 16:05:00,34.1,29.8,30.44,SE,132,8.0,8.0,84,0.00,,,0.00,Wunderground v.1.15,2013-01-14 00:05:00,
2013-01-13 16:15:00,34.2,30.2,30.44,ESE,114,8.0,8.0,85,0.00,,,0.00,Wunderground v.1.15,2013-01-14 00:15:00,
2013-01-13 16:20:00,34.2,30.4,30.44,SE,140,8.0,8.0,86,0.00,,,0.00,Wunderground v.1.15,2013-01-14 00:20:00,
2013-01-13 16:25:00,34.0,29.7,30.44,SE,140,8.0,8.0,84,0.00,,,0.00,Wunderground v.1.15,2013-01-14 00:25:00,
2013-01-13 16:30:00,33.8,29.5,30.44,SSE,153,7.0,7.0,84,0.00,,,0.00,Wunderground v.1.15,2013-01-14 00:30:00,
2013-01-13 16:35:00,33.7,29.4,30.45,SSE,157,6.0,7.0,84,0.00,,,0.00,Wunderground v.1.15,2013-01-14 00:35:00,
2013-01-13 16:40:00,33.5,29.2,30.45,SSE,153,6.0,7.0,84,0.00,,,0.00,Wunderground v.1.15,2013-01-14 00:40:00,
2013-01-13 16:45:00,33.5,29.5,30.45,SSE,161,6.0,7.0,85,0.00,,,0.00,Wunderground v.1.15,2013-01-14 00:45:00,
2013-01-13 16:50:00,33.4,29.1,30.45,SSE,161,6.0,6.0,84,0.00,,,0.00,Wunderground v.1.15,2013-01-14 00:50:00,
2013-01-13 16:55:00,33.4,29.1,30.45,SSE,150,5.0,6.0,84,0.00,,,0.00,Wunderground v.1.15,2013-01-14 00:55:00,
2013-01-13 17:00:00,33.4,29.4,30.46,SSE,162,5.0,5.0,85,0.00,,,0.00,Wunderground v.1.15,2013-01-14 01:00:00,
2013-01-13 17:05:00,33.3,29.0,30.46,SSE,163,5.0,5.0,84,0.00,,,0.00,Wunderground v.1.15,2013-01-14 01:05:00,
2013-01-13 17:10:00,33.2,29.2,30.46,SSE,154,5.0,5.0,85,0.00,,,0.00,Wunderground v.1.15,2013-01-14 01:10:00,
2013-01-13 17:15:00,33.2,29.2,30.46,SSE,163,5.0,5.0,85,0.00,,,0.00,Wunderground v.1.15,2013-01-14 01:15:00,
2013-01-13 17:20:00,33.2,29.2,30.46,SSE,155,5.0,5.0,85,0.00,,,0.00,Wunderground v.1.15,2013-01-14 01:20:00,
2013-01-13 17:25:00,33.1,29.1,30.46,SSE,167,5.0,5.0,85,0.00,,,0.00,Wunderground v.1.15,2013-01-14 01:25:00,
2013-01-13 17:30:00,33.1,29.1,30.46,SSE,162,5.0,5.0,85,0.00,,,0.00,Wunderground v.1.15,2013-01-14 01:30:00,
2013-01-13 17:35:00,33.0,29.3,30.46,SSE,156,5.0,6.0,86,0.00,,,0.00,Wunderground v.1.15,2013-01-14 01:35:00,
2013-01-13 17:40:00,32.8,29.1,30.45,SSE,155,5.0,5.0,86,0.00,,,0.00,Wunderground v.1.15,2013-01-14 01:40:00,
2013-01-13 17:50:00,32.6,28.9,30.46,SSE,162,5.0,5.0,86,0.00,,,0.00,Wunderground v.1.15,2013-01-14 01:50:00,
2013-01-13 17:55:00,32.4,28.7,30.46,South,169,4.0,5.0,86,0.00,,,0.00,Wunderground v.1.15,2013-01-14 01:55:00,
2013-01-13 18:00:00,32.3,28.9,30.46,SSE,163,4.0,4.0,87,0.00,,,0.00,Wunderground v.1.15,2013-01-14 02:00:00,
2013-01-13 18:05:00,32.3,28.9,30.47,SSE,158,4.0,5.0,87,0.00,,,0.00,Wunderground v.1.15,2013-01-14 02:05:00,
2013-01-13 18:10:00,32.3,28.9,30.47,SSE,158,4.0,4.0,87,0.00,,,0.00,Wunderground v.1.15,2013-01-14 02:10:00,
2013-01-13 18:15:00,32.2,29.0,30.47,SSE,158,4.0,4.0,88,0.00,,,0.00,Wunderground v.1.15,2013-01-14 02:15:00,
2013-01-13 18:20:00,32.3,29.1,30.47,SE,145,4.0,5.0,88,0.00,,,0.00,Wunderground v.1.15,2013-01-14 02:20:00,
2013-01-13 18:25:00,32.4,29.0,30.47,SE,140,5.0,5.0,87,0.00,,,0.00,Wunderground v.1.15,2013-01-14 02:25:00,
2013-01-13 18:30:00,32.5,29.1,30.47,SE,142,6.0,6.0,87,0.00,,,0.00,Wunderground v.1.15,2013-01-14 02:30:00,
2013-01-13 18:35:00,32.4,28.7,30.47,SSE,148,6.0,6.0,86,0.00,,,0.00,Wunderground v.1.15,2013-01-14 02:35:00,
2013-01-13 18:40:00,32.3,28.9,30.47,SSE,147,6.0,6.0,87,0.00,,,0.00,Wunderground v.1.15,2013-01-14 02:40:00,
2013-01-13 18:45:00,32.2,28.8,30.48,SE,138,6.0,7.0,87,0.00,,,0.00,Wunderground v.1.15,2013-01-14 02:45:00,
2013-01-13 18:50:00,32.1,28.9,30.48,SE,146,6.0,7.0,88,0.00,,,0.00,Wunderground v.1.15,2013-01-14 02:50:00,
2013-01-13 18:55:00,31.8,28.7,30.48,SSE,150,6.0,7.0,88,0.00,,,0.00,Wunderground v.1.15,2013-01-14 02:55:00,
2013-01-13 19:00:00,31.6,28.5,30.48,SE,140,6.0,6.0,88,0.00,,,0.00,Wunderground v.1.15,2013-01-14 03:00:00,
2013-01-13 19:05:00,31.5,28.4,30.48,SE,135,5.0,6.0,88,0.00,,,0.00,Wunderground v.1.15,2013-01-14 03:05:00,
2013-01-13 19:10:00,31.4,28.3,30.49,SSE,148,5.0,6.0,88,0.00,,,0.00,Wunderground v.1.15,2013-01-14 03:10:00,
2013-01-13 19:15:00,31.4,28.5,30.49,SE,146,5.0,6.0,89,0.00,,,0.00,Wunderground v.1.15,2013-01-14 03:15:00,
2013-01-13 19:20:00,31.2,28.3,30.48,SSE,150,5.0,5.0,89,0.00,,,0.00,Wunderground v.1.15,2013-01-14 03:20:00,
2013-01-13 19:25:00,31.2,28.3,30.47,SSE,159,6.0,7.0,89,0.00,,,0.00,Wunderground v.1.15,2013-01-14 03:25:00,
2013-01-13 19:30:00,31.1,28.2,30.47,SSE,150,6.0,8.0,89,0.00,,,0.00,Wunderground v.1.15,2013-01-14 03:30:00,
2013-01-13 19:35:00,31.0,28.1,30.47,SE,144,6.0,8.0,89,0.00,,,0.00,Wunderground v.1.15,2013-01-14 03:35:00,
2013-01-13 19:40:00,31.0,28.1,30.47,SE,133,6.0,6.0,89,0.00,,,0.00,Wunderground v.1.15,2013-01-14 03:40:00,
2013-01-13 19:45:00,31.0,28.1,30.47,SE,130,6.0,6.0,89,0.00,,,0.00,Wunderground v.1.15,2013-01-14 03:45:00,
2013-01-13 19:50:00,31.1,28.5,30.46,SE,128,5.0,5.0,90,0.00,,,0.00,Wunderground v.1.15,2013-01-14 03:50:00,
2013-01-13 19:55:00,31.0,28.4,30.46,SE,146,5.0,5.0,90,0.00,,,0.00,Wunderground v.1.15,2013-01-14 03:55:00,
2013-01-13 20:00:00,30.9,28.3,30.46,SE,135,5.0,5.0,90,0.00,,,0.00,Wunderground v.1.15,2013-01-14 04:00:00,
2013-01-13 20:05:00,30.8,28.2,30.46,SE,134,5.0,5.0,90,0.00,,,0.00,Wunderground v.1.15,2013-01-14 04:05:00,
2013-01-13 20:10:00,30.7,28.1,30.47,SE,144,5.0,6.0,90,0.00,,,0.00,Wunderground v.1.15,2013-01-14 04:10:00,
2013-01-13 20:15:00,30.6,28.0,30.47,SE,141,5.0,6.0,90,0.00,,,0.00,Wunderground v.1.15,2013-01-14 04:15:00,
2013-01-13 20:20:00,30.4,27.8,30.48,SSE,147,5.0,5.0,90,0.00,,,0.00,Wunderground v.1.15,2013-01-14 04:20:00,
2013-01-13 20:25:00,30.3,27.7,30.48,SSE,152,5.0,6.0,90,0.00,,,0.00,Wunderground v.1.15,2013-01-14 04:25:00,
2013-01-13 20:30:00,30.2,27.9,30.48,SE,139,5.0,5.0,91,0.00,,,0.00,Wunderground v.1.15,2013-01-14 04:30:00,
2013-01-13 20:35:00,30.0,27.7,30.48,SSE,164,5.0,6.0,91,0.00,,,0.00,Wunderground v.1.15,2013-01-14 04:35:00,
2013-01-13 20:40:00,29.9,27.6,30.49,SSE,158,5.0,7.0,91,0.00,,,0.00,Wunderground v.1.15,2013-01-14 04:40:00,
2013-01-13 20:45:00,29.9,27.6,30.48,SSE,157,6.0,7.0,91,0.00,,,0.00,Wunderground v.1.15,2013-01-14 04:45:00,
2013-01-13 20:50:00,30.0,28.0,30.49,SE,132,5.0,5.0,92,0.00,,,0.00,Wunderground v.1.15,2013-01-14 04:50:00,
2013-01-13 20:55:00,29.9,27.6,30.48,SE,138,5.0,7.0,91,0.00,,,0.00,Wunderground v.1.15,2013-01-14 04:55:00,
2013-01-13 21:00:00,30.0,28.0,30.49,SE,132,6.0,8.0,92,0.00,,,0.00,Wunderground v.1.15,2013-01-14 05:00:00,
2013-01-13 21:05:00,29.9,27.9,30.49,SE,127,6.0,8.0,92,0.00,,,0.00,Wunderground v.1.15,2013-01-14 05:05:00,
2013-01-13 21:10:00,29.7,27.7,30.48,SE,137,7.0,7.0,92,0.00,,,0.00,Wunderground v.1.15,2013-01-14 05:10:00,
2013-01-13 21:15:00,29.7,27.7,30.48,SE,133,8.0,8.0,92,0.00,,,0.00,Wunderground v.1.15,2013-01-14 05:15:00,
2013-01-13 21:20:00,29.6,27.6,30.48,SE,142,8.0,8.0,92,0.00,,,0.00,Wunderground v.1.15,2013-01-14 05:20:00,
2013-01-13 21:25:00,29.6,27.8,30.48,SE,144,9.0,9.0,93,0.00,,,0.00,Wunderground v.1.15,2013-01-14 05:25:00,
2013-01-13 21:30:00,29.7,27.7,30.48,SE,137,8.0,8.0,92,0.00,,,0.00,Wunderground v.1.15,2013-01-14 05:30:00,
2013-01-13 21:35:00,29.7,27.9,30.48,SE,134,7.0,8.0,93,0.00,,,0.00,Wunderground v.1.15,2013-01-14 05:35:00,
2013-01-13 21:40:00,29.7,27.9,30.48,SE,137,7.0,8.0,93,0.00,,,0.00,Wunderground v.1.15,2013-01-14 05:40:00,
2013-01-13 21:45:00,29.7,27.9,30.48,SE,134,8.0,8.0,93,0.00,,,0.00,Wunderground v.1.15,2013-01-14 05:45:00,
2013-01-13 21:50:00,29.6,27.8,30.48,SE,124,8.0,8.0,93,0.00,,,0.00,Wunderground v.1.15,2013-01-14 05:50:00,
2013-01-13 21:55:00,29.5,27.7,30.48,SSE,150,8.0,8.0,93,0.00,,,0.00,Wunderground v.1.15,2013-01-14 05:55:00,
2013-01-13 22:00:00,29.4,27.6,30.48,SE,128,7.0,7.0,93,0.00,,,0.00,Wunderground v.1.15,2013-01-14 06:00:00,
2013-01-13 22:05:00,29.3,27.5,30.48,ESE,118,6.0,7.0,93,0.00,,,0.00,Wunderground v.1.15,2013-01-14 06:05:00,
2013-01-13 22:10:00,29.1,27.3,30.48,SE,129,6.0,7.0,93,0.00,,,0.00,Wunderground v.1.15,2013-01-14 06:10:00,
2013-01-13 22:15:00,29.0,27.2,30.47,SE,125,5.0,7.0,93,0.00,,,0.00,Wunderground v.1.15,2013-01-14 06:15:00,
2013-01-13 22:20:00,29.2,27.7,30.47,SE,136,5.0,6.0,94,0.00,,,0.00,Wunderground v.1.15,2013-01-14 06:20:00,
2013-01-13 22:25:00,29.3,27.8,30.47,SE,132,6.0,6.0,94,0.00,,,0.00,Wunderground v.1.15,2013-01-14 06:25:00,
2013-01-13 22:30:00,29.3,27.8,30.48,SE,135,6.0,6.0,94,0.00,,,0.00,Wunderground v.1.15,2013-01-14 06:30:00,
2013-01-13 22:35:00,29.1,27.3,30.48,SE,142,6.0,7.0,93,0.00,,,0.00,Wunderground v.1.15,2013-01-14 06:35:00,
2013-01-13 22:40:00,29.2,27.7,30.48,SE,136,6.0,6.0,94,0.00,,,0.00,Wunderground v.1.15,2013-01-14 06:40:00,
2013-01-13 22:45:00,29.1,27.6,30.49,SE,138,6.0,7.0,94,0.00,,,0.00,Wunderground v.1.15,2013-01-14 06:45:00,
2013-01-13 22:50:00,28.8,27.3,30.49,SE,142,7.0,8.0,94,0.00,,,0.00,Wunderground v.1.15,2013-01-14 06:50:00,
2013-01-13 22:55:00,28.7,27.2,30.49,SSE,151,7.0,8.0,94,0.00,,,0.00,Wunderground v.1.15,2013-01-14 06:55:00,
2013-01-13 23:00:00,28.6,27.1,30.49,SE,142,6.0,6.0,94,0.00,,,0.00,Wunderground v.1.15,2013-01-14 07:00:00,
2013-01-13 23:05:00,28.4,26.9,30.49,SSE,157,6.0,6.0,94,0.00,,,0.00,Wunderground v.1.15,2013-01-14 07:05:00,
2013-01-13 23:10:00,28.3,26.8,30.49,SSE,157,6.0,6.0,94,0.00,,,0.00,Wunderground v.1.15,2013-01-14 07:10:00,
2013-01-13 23:15:00,28.2,26.7,30.50,SSE,156,6.0,6.0,94,0.00,,,0.00,Wunderground v.1.15,2013-01-14 07:15:00,
2013-01-13 23:20:00,28.1,26.6,30.50,SSE,155,6.0,6.0,94,0.00,,,0.00,Wunderground v.1.15,2013-01-14 07:20:00,
2013-01-13 23:25:00,28.1,26.6,30.50,SSE,148,6.0,7.0,94,0.00,,,0.00,Wunderground v.1.15,2013-01-14 07:25:00,
2013-01-13 23:30:00,28.3,27.1,30.50,SE,139,7.0,7.0,95,0.00,,,0.00,Wunderground v.1.15,2013-01-14 07:30:00,
2013-01-13 23:35:00,28.2,27.0,30.50,SSE,148,7.0,7.0,95,0.00,,,0.00,Wunderground v.1.15,2013-01-14 07:35:00,
2013-01-13 23:40:00,28.0,26.8,30.50,SSE,162,8.0,8.0,95,0.00,,,0.00,Wunderground v.1.15,2013-01-14 07:40:00,
2013-01-13 23:50:00,27.6,26.4,30.50,SSE,154,8.0,8.0,95,0.00,,,0.00,Wunderground v.1.15,2013-01-14 07:50:00,
2013-01-13 23:55:00,27.8,26.6,30.50,SE,146,8.0,11.0,95,0.00,,,0.00,Wunderground v.1.15,2013-01-14 07:55:00,